Kasagimaru — JJ3905 — position and weather

sailwx.info

Track history (hours):
 
Tides and Currents Weather Stations Pressure Air Temp Water Temp Dewpoint Dewpoint Depression Visibility Wind Speed Wind Dir Waves Ship Positions

Kasagimaru

Last reported at 2016-Apr-29 03:31 UTC. Time now 2016-Apr-29 04:07 UTC.
Position N 34°34' E 135°24'.

Length 42 m; draft 3.5 m.

Type: Tug. MMSI: 431300268.

Date/timePositionNaut miles runAvg speedWind from/ knotsBaromVisibWave heightAir tempDewpointWater temp
2016-Apr-29 03:31N 34°34' E 135°24'2 2.1
2016-Apr-29 02:33N 34°33' E 135°27'0 0.0
2016-Apr-29 01:06N 34°33' E 135°27'0 0.0
2016-Apr-29 00:17N 34°33' E 135°27'0 0.0
2016-Apr-28 23:32N 34°33' E 135°27'0 0.0
2016-Apr-28 22:33N 34°33' E 135°27'0 0.0
2016-Apr-28 21:30N 34°33' E 135°27'0 0.0
2016-Apr-28 20:27N 34°33' E 135°27'0 0.0
2016-Apr-28 19:32N 34°33' E 135°27'0 0.0
2016-Apr-28 18:26N 34°33' E 135°27'2 0.1
2016-Apr-27 23:16N 34°34' E 135°24'4 4.0
2016-Apr-27 22:21N 34°33' E 135°20'6 7.4
2016-Apr-27 21:33N 34°31' E 135°14'2210.6
2016-Apr-27 19:31N 34°13' E 134°59'5 0.3
2016-Apr-27 04:13N 34°08' E 135°01'711.2
2016-Apr-27 03:33N 34°13' E 135°07'2 1.5
2016-Apr-27 02:33N 34°13' E 135°09'0 0.0
2016-Apr-27 01:33N 34°13' E 135°09'0 0.0
2016-Apr-27 00:33N 34°13' E 135°09'0 0.0
2016-Apr-26 23:33N 34°13' E 135°09'0 0.0
2016-Apr-26 22:33N 34°13' E 135°09'0 0.0
2016-Apr-26 21:33N 34°13' E 135°09'0 0.0
2016-Apr-26 20:33N 34°13' E 135°09'0 0.0
2016-Apr-26 19:33N 34°13' E 135°09'0 0.0
2016-Apr-26 18:33N 34°13' E 135°09'0 0.0
2016-Apr-26 17:33N 34°13' E 135°09'0 0.0
2016-Apr-26 16:33N 34°13' E 135°09'0 0.0
2016-Apr-26 15:33N 34°13' E 135°09'0 0.0
2016-Apr-26 14:33N 34°13' E 135°09'0 0.0
2016-Apr-26 13:33N 34°13' E 135°09'0 0.0
2016-Apr-26 12:33N 34°13' E 135°09'0 0.0
2016-Apr-26 11:33N 34°13' E 135°09'0 0.0
2016-Apr-26 10:33N 34°13' E 135°09'0 0.0
2016-Apr-26 09:33N 34°13' E 135°09'0 0.0
2016-Apr-26 08:33N 34°13' E 135°09'0 0.0
2016-Apr-26 07:33N 34°13' E 135°09'0 0.0
2016-Apr-26 06:33N 34°13' E 135°09'0 0.0
2016-Apr-26 05:33N 34°13' E 135°09'0 0.0
2016-Apr-26 04:33N 34°13' E 135°09'0 0.0
2016-Apr-26 03:33N 34°13' E 135°09'17 1.0
2016-Apr-25 09:17N 34°08' E 134°49'1313.2
2016-Apr-25 08:18N 34°16' E 135°01'912.3
2016-Apr-25 07:33N 34°22' E 135°10'1312.8
2016-Apr-25 06:33N 34°31' E 135°21'5 4.9
2016-Apr-25 05:33N 34°33' E 135°26'0 0.1
2016-Apr-25 04:33N 34°33' E 135°26'4 3.6
2016-Apr-25 03:33N 34°33' E 135°22'2 2.2
2016-Apr-25 02:28N 34°31' E 135°23'0 0.2
2016-Apr-25 01:33N 34°31' E 135°23'0 0.0
2016-Apr-25 00:26N 34°31' E 135°23'6 5.6
2016-Apr-24 23:26N 34°27' E 135°19'1 0.8
2016-Apr-24 22:33N 34°26' E 135°19'2 1.6
2016-Apr-24 21:31N 34°28' E 135°19'8 8.1
2016-Apr-24 20:33N 34°33' E 135°27'0 0.0
2016-Apr-24 19:33N 34°33' E 135°27'0 0.0
2016-Apr-24 18:33N 34°33' E 135°27'0 0.0
2016-Apr-24 17:33N 34°33' E 135°27'0 0.0
2016-Apr-24 16:33N 34°33' E 135°27'0 0.0
2016-Apr-24 11:16N 34°33' E 135°27'0 0.0
2016-Apr-24 09:25N 34°33' E 135°27'0 0.0
2016-Apr-24 08:33N 34°33' E 135°27'0 0.0
2016-Apr-24 07:33N 34°33' E 135°27'0 0.0
2016-Apr-24 06:33N 34°33' E 135°27'1111.4
2016-Apr-24 05:33N 34°34' E 135°13'17 2.8
2016-Apr-23 23:30N 34°37' E 134°53'1212.8
2016-Apr-23 22:33N 34°36' E 135°07'1212.1
2016-Apr-23 21:33N 34°34' E 135°22'4 4.0
2016-Apr-23 20:33N 34°33' E 135°27'0 0.0
2016-Apr-23 19:25N 34°33' E 135°27'0 0.0
2016-Apr-23 18:21N 34°33' E 135°27'0 0.0
2016-Apr-23 17:27N 34°33' E 135°27'0 0.0
2016-Apr-23 16:26N 34°33' E 135°27'0 0.0
2016-Apr-23 13:19N 34°33' E 135°27'0 0.0
2016-Apr-23 09:29N 34°33' E 135°27'1 1.3
2016-Apr-23 08:33N 34°33' E 135°25'1 0.9
2016-Apr-23 07:33N 34°33' E 135°26'1 0.6
2016-Apr-23 06:33N 34°33' E 135°27'0 0.0
2016-Apr-23 05:33N 34°33' E 135°27'0 0.0
2016-Apr-23 04:33N 34°33' E 135°27'0 0.0
2016-Apr-23 03:25N 34°33' E 135°27'0 0.0
2016-Apr-23 02:32N 34°33' E 135°27'0 0.0
2016-Apr-23 00:15N 34°33' E 135°27'0 0.0
2016-Apr-22 23:32N 34°33' E 135°27'2 1.7
2016-Apr-22 22:33N 34°33' E 135°25'1 0.9
2016-Apr-22 21:33N 34°33' E 135°25'1 1.1
2016-Apr-22 20:33N 34°33' E 135°27'0 0.0
2016-Apr-22 19:33N 34°33' E 135°27'0 0.0
2016-Apr-22 18:33N 34°33' E 135°27'0 0.0
2016-Apr-22 17:31N 34°33' E 135°27'0 0.0
2016-Apr-22 16:33N 34°33' E 135°27'0 0.0
2016-Apr-22 01:11N 34°33' E 135°27'1 1.9
2016-Apr-22 00:32N 34°33' E 135°25'0 0.2
2016-Apr-21 23:33N 34°33' E 135°25'1 0.3
2016-Apr-21 19:14N 34°33' E 135°27'0 0.0
2016-Apr-21 18:12N 34°33' E 135°27'0 0.0
2016-Apr-21 17:26N 34°33' E 135°27'0 0.0
2016-Apr-21 15:20N 34°33' E 135°27'0 0.0
2016-Apr-21 14:33N 34°33' E 135°27'0 0.0
2016-Apr-21 13:22N 34°33' E 135°27'0 0.0
2016-Apr-21 11:32N 34°33' E 135°27'0 0.0
2016-Apr-21 10:27N 34°33' E 135°27'0 0.0
2016-Apr-21 09:29N 34°33' E 135°27'0 0.0
2016-Apr-21 08:32N 34°33' E 135°27'0 0.0
2016-Apr-21 07:25N 34°33' E 135°27'0 0.0
2016-Apr-21 06:30N 34°33' E 135°27'2 0.8
2016-Apr-21 04:33N 34°33' E 135°25'5 5.3
2016-Apr-21 03:33N 34°39' E 135°26'1 0.8
2016-Apr-21 02:33N 34°39' E 135°26'0 0.0
2016-Apr-21 01:33N 34°39' E 135°26'3 3.3
2016-Apr-21 00:33N 34°37' E 135°23'5 4.5
2016-Apr-20 23:33N 34°33' E 135°25'3 3.4
2016-Apr-20 22:32N 34°33' E 135°21'4 4.0
2016-Apr-20 21:32N 34°33' E 135°26'1 0.5
2016-Apr-20 20:28N 34°33' E 135°27'0 0.0
2016-Apr-20 19:32N 34°33' E 135°27'0 0.0
2016-Apr-20 18:29N 34°33' E 135°27'0 0.0
2016-Apr-20 17:32N 34°33' E 135°27'0 0.0
2016-Apr-20 16:23N 34°33' E 135°27'0 0.0
2016-Apr-20 15:17N 34°33' E 135°27'0 0.0
2016-Apr-20 14:23N 34°33' E 135°27'0 0.0
2016-Apr-20 04:13N 34°33' E 135°27'0 0.0
2016-Apr-20 01:10N 34°33' E 135°27'0 0.0
2016-Apr-20 00:29N 34°33' E 135°27'0 0.0
2016-Apr-19 23:33N 34°33' E 135°27'0 0.0
2016-Apr-19 22:33N 34°33' E 135°27'0 0.0
2016-Apr-19 21:24N 34°33' E 135°27'0 0.0
2016-Apr-19 20:33N 34°33' E 135°27'0 0.0
2016-Apr-19 19:32N 34°33' E 135°27'0 0.0
2016-Apr-19 18:20N 34°33' E 135°27'0 0.0
2016-Apr-19 17:33N 34°33' E 135°27'0 0.0
2016-Apr-19 16:33N 34°33' E 135°27'0 0.0
2016-Apr-19 15:33N 34°33' E 135°27'0 0.0
2016-Apr-19 14:31N 34°33' E 135°27'0 0.0
2016-Apr-19 13:33N 34°33' E 135°27'0 0.0
2016-Apr-19 12:33N 34°33' E 135°27'0 0.0
2016-Apr-19 11:32N 34°33' E 135°27'0 0.0
2016-Apr-19 07:05N 34°33' E 135°27'510.1
2016-Apr-19 06:33N 34°30' E 135°21'1211.9
2016-Apr-19 05:33N 34°22' E 135°10'7 3.6
2016-Apr-19 03:33N 34°28' E 135°05'  
Track history (hours):
 
Tides and Currents Weather Stations Pressure Air Temp Water Temp Dewpoint Dewpoint Depression Visibility Wind Speed Wind Dir Waves Ship Positions

Kasagimaru

Last reported at 2016-Apr-29 03:31 UTC. Time now 2016-Apr-29 04:07 UTC.
Position N 34°34' E 135°24'.

Length 42 m; draft 3.5 m.

Type: Tug. MMSI: 431300268.

Date/timePositionNaut miles runAvg speedWind from/ knotsBaromVisibWave heightAir tempDewpointWater temp
2016-Apr-29 03:31N 34°34' E 135°24'2 2.1
2016-Apr-29 02:33N 34°33' E 135°27'0 0.0
2016-Apr-29 01:06N 34°33' E 135°27'0 0.0
2016-Apr-29 00:17N 34°33' E 135°27'0 0.0
2016-Apr-28 23:32N 34°33' E 135°27'0 0.0
2016-Apr-28 22:33N 34°33' E 135°27'0 0.0
2016-Apr-28 21:30N 34°33' E 135°27'0 0.0
2016-Apr-28 20:27N 34°33' E 135°27'0 0.0
2016-Apr-28 19:32N 34°33' E 135°27'0 0.0
2016-Apr-28 18:26N 34°33' E 135°27'2 0.1
2016-Apr-27 23:16N 34°34' E 135°24'4 4.0
2016-Apr-27 22:21N 34°33' E 135°20'6 7.4
2016-Apr-27 21:33N 34°31' E 135°14'2210.6
2016-Apr-27 19:31N 34°13' E 134°59'5 0.3
2016-Apr-27 04:13N 34°08' E 135°01'711.2
2016-Apr-27 03:33N 34°13' E 135°07'2 1.5
2016-Apr-27 02:33N 34°13' E 135°09'0 0.0
2016-Apr-27 01:33N 34°13' E 135°09'0 0.0
2016-Apr-27 00:33N 34°13' E 135°09'0 0.0
2016-Apr-26 23:33N 34°13' E 135°09'0 0.0
2016-Apr-26 22:33N 34°13' E 135°09'0 0.0
2016-Apr-26 21:33N 34°13' E 135°09'0 0.0
2016-Apr-26 20:33N 34°13' E 135°09'0 0.0
2016-Apr-26 19:33N 34°13' E 135°09'0 0.0
2016-Apr-26 18:33N 34°13' E 135°09'0 0.0
2016-Apr-26 17:33N 34°13' E 135°09'0 0.0
2016-Apr-26 16:33N 34°13' E 135°09'0 0.0
2016-Apr-26 15:33N 34°13' E 135°09'0 0.0
2016-Apr-26 14:33N 34°13' E 135°09'0 0.0
2016-Apr-26 13:33N 34°13' E 135°09'0 0.0
2016-Apr-26 12:33N 34°13' E 135°09'0 0.0
2016-Apr-26 11:33N 34°13' E 135°09'0 0.0
2016-Apr-26 10:33N 34°13' E 135°09'0 0.0
2016-Apr-26 09:33N 34°13' E 135°09'0 0.0
2016-Apr-26 08:33N 34°13' E 135°09'0 0.0
2016-Apr-26 07:33N 34°13' E 135°09'0 0.0
2016-Apr-26 06:33N 34°13' E 135°09'0 0.0
2016-Apr-26 05:33N 34°13' E 135°09'0 0.0
2016-Apr-26 04:33N 34°13' E 135°09'0 0.0
2016-Apr-26 03:33N 34°13' E 135°09'17 1.0
2016-Apr-25 09:17N 34°08' E 134°49'1313.2
2016-Apr-25 08:18N 34°16' E 135°01'912.3
2016-Apr-25 07:33N 34°22' E 135°10'1312.8
2016-Apr-25 06:33N 34°31' E 135°21'5 4.9
2016-Apr-25 05:33N 34°33' E 135°26'0 0.1
2016-Apr-25 04:33N 34°33' E 135°26'4 3.6
2016-Apr-25 03:33N 34°33' E 135°22'2 2.2
2016-Apr-25 02:28N 34°31' E 135°23'0 0.2
2016-Apr-25 01:33N 34°31' E 135°23'0 0.0
2016-Apr-25 00:26N 34°31' E 135°23'6 5.6
2016-Apr-24 23:26N 34°27' E 135°19'1 0.8
2016-Apr-24 22:33N 34°26' E 135°19'2 1.6
2016-Apr-24 21:31N 34°28' E 135°19'8 8.1
2016-Apr-24 20:33N 34°33' E 135°27'0 0.0
2016-Apr-24 19:33N 34°33' E 135°27'0 0.0
2016-Apr-24 18:33N 34°33' E 135°27'0 0.0
2016-Apr-24 17:33N 34°33' E 135°27'0 0.0
2016-Apr-24 16:33N 34°33' E 135°27'0 0.0
2016-Apr-24 11:16N 34°33' E 135°27'0 0.0
2016-Apr-24 09:25N 34°33' E 135°27'0 0.0
2016-Apr-24 08:33N 34°33' E 135°27'0 0.0
2016-Apr-24 07:33N 34°33' E 135°27'0 0.0
2016-Apr-24 06:33N 34°33' E 135°27'1111.4
2016-Apr-24 05:33N 34°34' E 135°13'17 2.8
2016-Apr-23 23:30N 34°37' E 134°53'1212.8
2016-Apr-23 22:33N 34°36' E 135°07'1212.1
2016-Apr-23 21:33N 34°34' E 135°22'4 4.0
2016-Apr-23 20:33N 34°33' E 135°27'0 0.0
2016-Apr-23 19:25N 34°33' E 135°27'0 0.0
2016-Apr-23 18:21N 34°33' E 135°27'0 0.0
2016-Apr-23 17:27N 34°33' E 135°27'0 0.0
2016-Apr-23 16:26N 34°33' E 135°27'0 0.0
2016-Apr-23 13:19N 34°33' E 135°27'0 0.0
2016-Apr-23 09:29N 34°33' E 135°27'1 1.3
2016-Apr-23 08:33N 34°33' E 135°25'1 0.9
2016-Apr-23 07:33N 34°33' E 135°26'1 0.6
2016-Apr-23 06:33N 34°33' E 135°27'0 0.0
2016-Apr-23 05:33N 34°33' E 135°27'0 0.0
2016-Apr-23 04:33N 34°33' E 135°27'0 0.0
2016-Apr-23 03:25N 34°33' E 135°27'0 0.0
2016-Apr-23 02:32N 34°33' E 135°27'0 0.0
2016-Apr-23 00:15N 34°33' E 135°27'0 0.0
2016-Apr-22 23:32N 34°33' E 135°27'2 1.7
2016-Apr-22 22:33N 34°33' E 135°25'1 0.9
2016-Apr-22 21:33N 34°33' E 135°25'1 1.1
2016-Apr-22 20:33N 34°33' E 135°27'0 0.0
2016-Apr-22 19:33N 34°33' E 135°27'0 0.0
2016-Apr-22 18:33N 34°33' E 135°27'0 0.0
2016-Apr-22 17:31N 34°33' E 135°27'0 0.0
2016-Apr-22 16:33N 34°33' E 135°27'0 0.0
2016-Apr-22 01:11N 34°33' E 135°27'1 1.9
2016-Apr-22 00:32N 34°33' E 135°25'0 0.2
2016-Apr-21 23:33N 34°33' E 135°25'1 0.3
2016-Apr-21 19:14N 34°33' E 135°27'0 0.0
2016-Apr-21 18:12N 34°33' E 135°27'0 0.0
2016-Apr-21 17:26N 34°33' E 135°27'0 0.0
2016-Apr-21 15:20N 34°33' E 135°27'0 0.0
2016-Apr-21 14:33N 34°33' E 135°27'0 0.0
2016-Apr-21 13:22N 34°33' E 135°27'0 0.0
2016-Apr-21 11:32N 34°33' E 135°27'0 0.0
2016-Apr-21 10:27N 34°33' E 135°27'0 0.0
2016-Apr-21 09:29N 34°33' E 135°27'0 0.0
2016-Apr-21 08:32N 34°33' E 135°27'0 0.0
2016-Apr-21 07:25N 34°33' E 135°27'0 0.0
2016-Apr-21 06:30N 34°33' E 135°27'2 0.8
2016-Apr-21 04:33N 34°33' E 135°25'5 5.3
2016-Apr-21 03:33N 34°39' E 135°26'1 0.8
2016-Apr-21 02:33N 34°39' E 135°26'0 0.0
2016-Apr-21 01:33N 34°39' E 135°26'3 3.3
2016-Apr-21 00:33N 34°37' E 135°23'5 4.5
2016-Apr-20 23:33N 34°33' E 135°25'3 3.4
2016-Apr-20 22:32N 34°33' E 135°21'4 4.0
2016-Apr-20 21:32N 34°33' E 135°26'1 0.5
2016-Apr-20 20:28N 34°33' E 135°27'0 0.0
2016-Apr-20 19:32N 34°33' E 135°27'0 0.0
2016-Apr-20 18:29N 34°33' E 135°27'0 0.0
2016-Apr-20 17:32N 34°33' E 135°27'0 0.0
2016-Apr-20 16:23N 34°33' E 135°27'0 0.0
2016-Apr-20 15:17N 34°33' E 135°27'0 0.0
2016-Apr-20 14:23N 34°33' E 135°27'0 0.0
2016-Apr-20 04:13N 34°33' E 135°27'0 0.0
2016-Apr-20 01:10N 34°33' E 135°27'0 0.0
2016-Apr-20 00:29N 34°33' E 135°27'0 0.0
2016-Apr-19 23:33N 34°33' E 135°27'0 0.0
2016-Apr-19 22:33N 34°33' E 135°27'0 0.0
2016-Apr-19 21:24N 34°33' E 135°27'0 0.0
2016-Apr-19 20:33N 34°33' E 135°27'0 0.0
2016-Apr-19 19:32N 34°33' E 135°27'0 0.0
2016-Apr-19 18:20N 34°33' E 135°27'0 0.0
2016-Apr-19 17:33N 34°33' E 135°27'0 0.0
2016-Apr-19 16:33N 34°33' E 135°27'0 0.0
2016-Apr-19 15:33N 34°33' E 135°27'0 0.0
2016-Apr-19 14:31N 34°33' E 135°27'0 0.0
2016-Apr-19 13:33N 34°33' E 135°27'0 0.0
2016-Apr-19 12:33N 34°33' E 135°27'0 0.0
2016-Apr-19 11:32N 34°33' E 135°27'0 0.0
2016-Apr-19 07:05N 34°33' E 135°27'510.1
2016-Apr-19 06:33N 34°30' E 135°21'1211.9
2016-Apr-19 05:33N 34°22' E 135°10'7 3.6
2016-Apr-19 03:33N 34°28' E 135°05'  

Dump ship's entire track history